createdAt,value
2022-07-26T00:02:03.357Z,11.48
2022-07-26T00:04:30.392Z,10.98
2022-07-26T00:06:57.400Z,10.90
2022-07-26T00:09:24.250Z,19.65
2022-07-26T00:11:51.589Z,10.93
2022-07-26T00:14:18.833Z,10.88
2022-07-26T00:16:46.036Z,10.60
2022-07-26T00:19:14.175Z,9.98
2022-07-26T00:21:41.081Z,9.85
2022-07-26T00:24:08.747Z,10.68
2022-07-26T00:26:35.766Z,9.65
2022-07-26T00:29:04.838Z,10.90
2022-07-26T00:31:32.388Z,9.63
2022-07-26T00:33:59.257Z,10.07
2022-07-26T00:36:27.541Z,9.88
2022-07-26T00:38:54.384Z,10.02
2022-07-26T00:41:21.315Z,17.15
2022-07-26T00:43:59.197Z,10.27
2022-07-26T00:46:26.763Z,9.95
2022-07-26T00:48:54.031Z,9.73
2022-07-26T00:51:21.556Z,12.48
2022-07-26T00:53:48.939Z,11.32
2022-07-26T00:56:17.107Z,9.57
2022-07-26T00:58:44.752Z,10.05
2022-07-26T01:01:12.229Z,9.30
2022-07-26T01:03:39.941Z,9.63
2022-07-26T01:06:07.265Z,10.27
2022-07-26T01:08:34.169Z,9.68
2022-07-26T01:11:01.278Z,10.00
2022-07-26T01:13:31.902Z,10.48
2022-07-26T01:16:01.653Z,9.90
2022-07-26T01:18:28.510Z,9.65
2022-07-26T01:20:57.823Z,11.45
2022-07-26T01:23:24.630Z,9.80
2022-07-26T01:25:51.541Z,11.35
2022-07-26T01:28:19.520Z,10.52
2022-07-26T01:30:47.835Z,7.72
2022-07-26T01:33:14.647Z,7.35
2022-07-26T01:35:42.112Z,7.05
2022-07-26T01:38:09.007Z,7.95
2022-07-26T01:40:35.890Z,7.30
2022-07-26T01:43:02.773Z,6.55
2022-07-26T01:45:29.713Z,7.00
2022-07-26T01:47:56.498Z,6.97
2022-07-26T01:50:23.569Z,6.53
2022-07-26T01:52:50.378Z,6.47
2022-07-26T01:55:17.320Z,6.45
2022-07-26T01:57:47.221Z,7.13
2022-07-26T02:00:14.755Z,6.60
2022-07-26T02:02:41.665Z,6.13
2022-07-26T02:05:09.916Z,6.38
2022-07-26T02:07:44.594Z,5.82
2022-07-26T02:10:12.736Z,5.10
2022-07-26T02:12:41.456Z,5.35
2022-07-26T02:15:09.767Z,5.50
2022-07-26T02:17:36.771Z,5.10
2022-07-26T02:20:05.067Z,4.95
2022-07-26T02:22:31.978Z,5.50
2022-07-26T02:25:04.510Z,4.88
2022-07-26T02:27:32.024Z,5.82
2022-07-26T02:29:58.862Z,4.97
2022-07-26T02:32:25.992Z,4.78
2022-07-26T02:34:52.826Z,5.13
2022-07-26T02:37:19.695Z,4.53
2022-07-26T02:39:46.576Z,5.30
2022-07-26T02:42:13.465Z,5.00
2022-07-26T02:44:41.559Z,4.78
2022-07-26T02:47:08.404Z,5.07
2022-07-26T02:49:39.656Z,5.40
2022-07-26T02:52:06.494Z,5.45
2022-07-26T02:54:33.322Z,5.00
2022-07-26T02:57:00.331Z,5.35
2022-07-26T02:59:27.205Z,4.50
2022-07-26T03:01:54.064Z,4.93
2022-07-26T03:04:21.578Z,4.53
2022-07-26T03:06:48.397Z,4.60
2022-07-26T03:09:15.209Z,4.43
2022-07-26T03:11:42.286Z,4.93
2022-07-26T03:14:09.826Z,4.70
2022-07-26T03:16:37.123Z,4.10
2022-07-26T03:19:03.990Z,4.20
2022-07-26T03:21:30.921Z,4.60
2022-07-26T03:23:57.845Z,3.97
2022-07-26T03:26:24.626Z,3.93
2022-07-26T03:28:51.509Z,3.90
2022-07-26T03:31:18.369Z,4.70
2022-07-26T03:33:45.244Z,3.60
2022-07-26T03:36:15.382Z,3.90
2022-07-26T03:38:42.737Z,3.93
2022-07-26T03:41:09.550Z,4.00
2022-07-26T03:43:40.658Z,3.90
2022-07-26T03:46:07.554Z,3.67
2022-07-26T03:48:34.528Z,4.20
2022-07-26T03:51:01.342Z,4.00
2022-07-26T03:53:28.235Z,4.30
2022-07-26T03:56:14.550Z,4.27
2022-07-26T03:58:42.034Z,4.30
2022-07-26T04:01:08.943Z,4.10
2022-07-26T04:03:36.273Z,4.10
2022-07-26T04:06:03.272Z,4.00
2022-07-26T04:08:30.579Z,3.93
2022-07-26T04:10:57.382Z,3.90
2022-07-26T04:13:24.304Z,4.60
2022-07-26T04:15:51.440Z,4.37
2022-07-26T04:18:18.352Z,4.23
2022-07-26T04:20:45.346Z,4.20
2022-07-26T04:23:12.807Z,4.07
2022-07-26T04:25:41.365Z,4.10
2022-07-26T04:28:10.070Z,4.43
2022-07-26T04:30:36.965Z,4.63
2022-07-26T04:33:04.632Z,4.70
2022-07-26T04:35:32.554Z,4.50
2022-07-26T04:38:00.157Z,4.00
2022-07-26T04:40:29.291Z,4.87
2022-07-26T04:42:56.322Z,5.03
2022-07-26T04:45:23.167Z,4.00
2022-07-26T04:48:37.965Z,4.20
2022-07-26T04:51:05.008Z,3.77
2022-07-26T04:53:31.982Z,4.10
2022-07-26T04:55:59.055Z,4.23
2022-07-26T04:58:26.170Z,4.07
2022-07-26T05:01:10.306Z,4.50
2022-07-26T05:03:38.959Z,4.20
2022-07-26T05:06:06.000Z,3.90
2022-07-26T05:08:32.911Z,4.17
2022-07-26T05:10:59.788Z,4.43
2022-07-26T23:54:33.715Z,7.97
2022-07-26T23:57:00.558Z,9.00
2022-07-26T23:59:27.458Z,17.17
